createdAt,value
2023-03-31T00:00:11.861Z,9.60
2023-03-31T00:05:18.203Z,9.70
2023-03-31T00:10:20.521Z,9.50
2023-03-31T00:15:22.621Z,9.40
2023-03-31T00:20:24.669Z,9.40
2023-03-31T00:25:26.511Z,9.60
2023-03-31T00:30:28.331Z,9.60
2023-03-31T00:35:30.203Z,9.70
2023-03-31T00:40:32.805Z,9.80
2023-03-31T00:45:34.656Z,9.70
2023-03-31T00:50:43.326Z,9.70
2023-03-31T00:55:54.252Z,9.70
2023-03-31T01:00:58.182Z,9.50
2023-03-31T01:06:06.687Z,9.50
2023-03-31T01:11:12.078Z,9.40
2023-03-31T01:16:14.156Z,9.40
2023-03-31T01:21:32.190Z,10.40
2023-03-31T01:26:56.404Z,10.00
2023-03-31T01:32:19.851Z,9.50
2023-03-31T01:37:41.703Z,9.60
2023-03-31T01:43:05.951Z,9.70
2023-03-31T01:48:21.295Z,9.60
2023-03-31T01:53:55.123Z,9.60
2023-03-31T01:59:04.493Z,9.70
2023-03-31T02:04:29.466Z,9.60
2023-03-31T02:09:38.868Z,9.70
2023-03-31T02:14:48.071Z,9.70
2023-03-31T02:19:52.578Z,9.60
2023-03-31T02:24:56.217Z,9.90
2023-03-31T02:29:59.089Z,9.90
2023-03-31T02:35:02.121Z,9.90
2023-03-31T02:40:10.441Z,9.90
2023-03-31T02:45:45.303Z,10.00
2023-03-31T02:51:38.101Z,10.00
2023-03-31T02:57:19.313Z,10.20
2023-03-31T03:02:21.044Z,10.40
2023-03-31T03:07:37.968Z,10.70
2023-03-31T03:12:50.577Z,10.90
2023-03-31T03:17:53.545Z,10.80
2023-03-31T03:22:55.468Z,10.90
2023-03-31T03:27:57.556Z,10.90
2023-03-31T03:32:59.475Z,10.90
2023-03-31T03:38:01.274Z,10.80
2023-03-31T03:43:03.050Z,10.50
2023-03-31T03:48:05.190Z,10.80
2023-03-31T03:53:07.689Z,10.60
2023-03-31T03:58:09.772Z,10.70
2023-03-31T04:03:12.435Z,10.60
2023-03-31T04:08:14.374Z,10.40
2023-03-31T04:13:17.003Z,10.50
2023-03-31T04:18:23.221Z,10.40
2023-03-31T04:23:26.874Z,10.40
2023-03-31T04:28:34.883Z,10.20
2023-03-31T04:33:39.851Z,10.30
2023-03-31T04:38:41.587Z,10.50
2023-03-31T04:43:43.529Z,10.10
2023-03-31T04:48:45.722Z,10.10
2023-03-31T04:53:47.562Z,10.20
2023-03-31T04:58:49.503Z,8.30
2023-03-31T05:03:51.276Z,10.00
2023-03-31T05:08:53.095Z,9.80
2023-03-31T05:13:55.294Z,9.90
2023-03-31T05:18:57.109Z,10.10
2023-03-31T05:23:59.327Z,10.20
2023-03-31T05:29:01.157Z,10.30
2023-03-31T05:34:03.141Z,10.30
2023-03-31T05:39:06.362Z,10.20
2023-03-31T05:44:08.887Z,10.20
2023-03-31T05:49:12.067Z,9.90
2023-03-31T05:54:14.533Z,10.00
2023-03-31T05:59:16.379Z,10.10
2023-03-31T06:04:18.354Z,10.00
2023-03-31T06:09:20.442Z,10.20
2023-03-31T06:14:22.339Z,10.10
2023-03-31T06:19:24.915Z,10.20
2023-03-31T06:24:27.545Z,10.20
2023-03-31T06:29:29.435Z,10.30
2023-03-31T06:34:31.575Z,7.20
2023-03-31T06:39:33.336Z,10.50
2023-03-31T06:44:35.482Z,10.60
2023-03-31T06:49:37.276Z,10.70
2023-03-31T06:54:39.343Z,10.90
2023-03-31T06:59:41.498Z,12.50
2023-03-31T07:04:43.697Z,12.70
2023-03-31T07:09:45.513Z,10.80
2023-03-31T07:14:47.361Z,10.80
2023-03-31T07:19:49.064Z,10.70
2023-03-31T07:24:50.829Z,10.50
2023-03-31T07:29:52.521Z,10.60
2023-03-31T07:34:54.437Z,10.50
2023-03-31T07:39:56.637Z,10.40
2023-03-31T07:44:58.719Z,10.50
2023-03-31T07:55:04.007Z,10.90
2023-03-31T08:00:08.567Z,11.10
2023-03-31T08:05:12.576Z,11.00
2023-03-31T08:10:22.221Z,11.30
2023-03-31T08:15:24.812Z,12.30
2023-03-31T08:20:26.629Z,12.30
2023-03-31T08:25:28.517Z,12.60
2023-03-31T08:30:30.383Z,12.10
2023-03-31T08:35:32.399Z,12.00
2023-03-31T08:40:34.874Z,12.00
2023-03-31T08:45:42.536Z,12.50
2023-03-31T08:50:50.974Z,12.90
2023-03-31T08:55:55.098Z,13.30
2023-03-31T09:01:00.572Z,13.50
2023-03-31T09:06:14.744Z,13.60
2023-03-31T09:11:43.697Z,13.80
2023-03-31T09:16:48.246Z,13.70
2023-03-31T09:21:53.637Z,14.40
2023-03-31T09:27:08.436Z,15.10
2023-03-31T09:32:28.093Z,15.50
2023-03-31T09:37:33.381Z,14.70
2023-03-31T09:42:37.160Z,14.80
2023-03-31T09:47:50.661Z,14.80
2023-03-31T09:52:56.283Z,13.90
2023-03-31T09:58:01.919Z,13.90
2023-03-31T10:03:07.834Z,14.00
2023-03-31T10:08:21.434Z,14.50
2023-03-31T10:13:30.033Z,14.70
2023-03-31T10:18:38.765Z,15.20
2023-03-31T10:23:47.957Z,15.60
2023-03-31T10:28:52.858Z,15.90
2023-03-31T10:33:56.229Z,16.00
2023-03-31T10:38:58.748Z,16.70
2023-03-31T10:44:05.537Z,16.50
2023-03-31T10:49:40.655Z,16.50
2023-03-31T10:54:51.791Z,16.40
2023-03-31T11:00:13.181Z,15.60
2023-03-31T11:05:33.020Z,14.70
2023-03-31T11:10:51.607Z,14.80
2023-03-31T11:16:12.803Z,14.60
2023-03-31T11:26:31.930Z,15.00
2023-03-31T11:31:40.606Z,15.40
2023-03-31T11:37:01.218Z,15.40
2023-03-31T11:42:11.744Z,15.30
2023-03-31T11:47:27.107Z,14.60
2023-03-31T11:52:40.955Z,13.40
2023-03-31T11:57:48.000Z,11.20
2023-03-31T12:03:13.468Z,10.80
2023-03-31T12:08:47.159Z,10.70
2023-03-31T12:13:59.289Z,10.50
2023-03-31T12:19:16.194Z,10.50
2023-03-31T12:24:21.458Z,10.70
2023-03-31T12:29:34.744Z,10.80
2023-03-31T12:34:44.159Z,11.40
2023-03-31T12:40:27.160Z,11.70
2023-03-31T12:45:39.451Z,13.00
2023-03-31T12:50:57.754Z,12.90
2023-03-31T12:56:00.290Z,14.00
2023-03-31T13:01:07.164Z,14.40
2023-03-31T13:06:27.853Z,13.70
2023-03-31T13:11:39.004Z,15.00
2023-03-31T13:16:41.107Z,14.70
2023-03-31T13:21:57.893Z,14.60
2023-03-31T13:27:35.409Z,14.70
2023-03-31T13:32:39.343Z,15.50
2023-03-31T13:38:00.355Z,14.70
2023-03-31T13:43:53.434Z,13.70
2023-03-31T13:49:01.180Z,13.70
2023-03-31T13:54:37.105Z,13.50
2023-03-31T14:00:01.309Z,13.20
2023-03-31T14:05:17.825Z,13.30
2023-03-31T14:10:25.355Z,13.40
2023-03-31T14:15:30.613Z,14.00
2023-03-31T14:20:35.594Z,14.00
2023-03-31T14:25:47.986Z,13.10
2023-03-31T14:31:09.408Z,12.60
2023-03-31T14:36:29.792Z,12.60
2023-03-31T14:41:33.217Z,12.70
2023-03-31T14:46:39.250Z,13.20
2023-03-31T14:51:44.891Z,13.80
2023-03-31T14:56:58.593Z,13.50
2023-03-31T15:02:03.794Z,13.70
2023-03-31T15:07:06.798Z,13.50
2023-03-31T15:12:13.686Z,13.90
2023-03-31T15:17:38.304Z,13.80
2023-03-31T15:22:41.078Z,14.10
2023-03-31T15:27:53.023Z,14.30
2023-03-31T15:33:01.506Z,13.60
2023-03-31T15:38:20.246Z,13.60
2023-03-31T15:43:43.194Z,13.00
2023-03-31T15:48:54.165Z,13.00
2023-03-31T15:53:56.787Z,13.10
2023-03-31T15:59:00.104Z,13.00
2023-03-31T16:04:07.119Z,13.00
2023-03-31T16:09:14.207Z,12.70
2023-03-31T16:14:33.916Z,12.80
2023-03-31T16:20:00.820Z,12.60
2023-03-31T16:25:07.938Z,12.70
2023-03-31T16:30:19.062Z,12.60
2023-03-31T16:35:21.094Z,12.50
2023-03-31T16:40:22.937Z,12.50
2023-03-31T16:45:25.034Z,12.40
2023-03-31T16:50:26.949Z,12.30
2023-03-31T16:55:31.723Z,12.40
2023-03-31T17:00:36.567Z,12.30
2023-03-31T17:05:39.920Z,12.50
2023-03-31T17:10:42.427Z,12.20
2023-03-31T17:15:44.477Z,12.10
2023-03-31T17:20:46.652Z,12.10
2023-03-31T17:25:50.269Z,11.90
2023-03-31T17:30:52.401Z,11.80
2023-03-31T17:35:58.573Z,11.70
2023-03-31T17:41:05.397Z,11.80
2023-03-31T17:46:12.372Z,11.80
2023-03-31T17:51:17.884Z,11.70
2023-03-31T17:56:19.765Z,12.20
2023-03-31T18:01:21.939Z,11.30
2023-03-31T18:06:25.209Z,11.40
2023-03-31T18:11:27.674Z,11.40
2023-03-31T18:16:31.120Z,11.50
2023-03-31T18:21:35.866Z,11.40
2023-03-31T18:26:37.954Z,11.00
2023-03-31T18:31:40.174Z,10.60
2023-03-31T18:36:42.142Z,10.70
2023-03-31T18:41:49.094Z,12.60
2023-03-31T18:46:51.482Z,10.70
2023-03-31T18:51:54.316Z,10.70
2023-03-31T18:56:56.691Z,10.40
2023-03-31T19:01:58.793Z,10.60
2023-03-31T19:07:00.676Z,10.50
2023-03-31T19:12:02.440Z,10.70
2023-03-31T19:17:05.156Z,10.70
2023-03-31T19:22:07.327Z,10.70
2023-03-31T19:27:12.343Z,10.70
2023-03-31T19:32:14.296Z,10.60
2023-03-31T19:37:16.254Z,10.40
2023-03-31T19:42:17.919Z,10.40
2023-03-31T19:47:20.060Z,10.40
2023-03-31T19:52:21.806Z,10.30
2023-03-31T19:57:23.665Z,10.30
2023-03-31T20:02:27.064Z,10.60
2023-03-31T20:07:30.093Z,10.50
2023-03-31T20:12:31.917Z,10.50
2023-03-31T20:17:33.884Z,10.60
2023-03-31T20:22:35.891Z,11.50
2023-03-31T20:27:38.016Z,10.70
2023-03-31T20:32:40.379Z,10.50
2023-03-31T20:37:42.490Z,10.40
2023-03-31T20:42:44.325Z,10.60
2023-03-31T20:47:46.846Z,10.60
2023-03-31T20:52:49.425Z,10.50
2023-03-31T20:57:51.419Z,10.50
2023-03-31T21:02:53.182Z,10.40
2023-03-31T21:07:56.896Z,10.40
2023-03-31T21:12:58.612Z,10.60
2023-03-31T21:18:00.862Z,10.60
2023-03-31T21:23:02.897Z,10.50
2023-03-31T21:28:04.834Z,10.50
2023-03-31T21:38:09.177Z,10.40
2023-03-31T21:43:11.291Z,10.40
2023-03-31T21:48:13.313Z,10.30
2023-03-31T21:53:15.200Z,10.50
2023-03-31T21:58:20.176Z,10.50
2023-03-31T22:03:27.460Z,10.60
2023-03-31T22:08:31.816Z,10.40
2023-03-31T22:13:33.725Z,10.50
2023-03-31T22:18:36.178Z,10.50
2023-03-31T22:23:38.116Z,10.50
2023-03-31T22:28:40.277Z,10.40
2023-03-31T22:33:42.315Z,10.70
2023-03-31T22:38:44.263Z,10.40
2023-03-31T22:43:46.531Z,10.10
2023-03-31T22:48:51.809Z,10.30
2023-03-31T22:53:54.550Z,10.20
2023-03-31T22:58:58.146Z,10.40
2023-03-31T23:04:01.297Z,10.10
2023-03-31T23:09:03.697Z,10.10
2023-03-31T23:14:05.544Z,10.20
2023-03-31T23:19:08.578Z,10.20
2023-03-31T23:24:10.968Z,11.80
2023-03-31T23:29:12.870Z,10.20
2023-03-31T23:34:15.178Z,10.30
2023-03-31T23:39:17.430Z,11.60
2023-03-31T23:44:21.182Z,10.40
2023-03-31T23:49:23.020Z,10.30
2023-03-31T23:54:25.124Z,10.30
2023-03-31T23:59:27.178Z,10.20
